sensor_id;sensor_type;location;lat;lon;timestamp;P1;durP1;ratioP1;P2;durP2;ratioP2
7166;SDS011;3625;51.762;14.320;2023-03-01T00:00:07;28.37;;;19.60;;
7166;SDS011;3625;51.762;14.320;2023-03-01T00:02:37;25.43;;;17.80;;
7166;SDS011;3625;51.762;14.320;2023-03-01T00:05:06;21.57;;;15.47;;
7166;SDS011;3625;51.762;14.320;2023-03-01T00:07:36;16.37;;;13.50;;
7166;SDS011;3625;51.762;14.320;2023-03-01T00:10:05;21.20;;;15.77;;
7166;SDS011;3625;51.762;14.320;2023-03-01T00:12:35;23.40;;;17.83;;
7166;SDS011;3625;51.762;14.320;2023-03-01T00:15:04;21.97;;;16.60;;
7166;SDS011;3625;51.762;14.320;2023-03-01T00:17:33;17.43;;;13.97;;
7166;SDS011;3625;51.762;14.320;2023-03-01T00:20:02;23.57;;;16.43;;
7166;SDS011;3625;51.762;14.320;2023-03-01T00:22:34;22.83;;;16.87;;
7166;SDS011;3625;51.762;14.320;2023-03-01T00:25:04;21.10;;;16.57;;
7166;SDS011;3625;51.762;14.320;2023-03-01T00:27:33;20.00;;;16.07;;
7166;SDS011;3625;51.762;14.320;2023-03-01T00:30:02;20.43;;;14.80;;
7166;SDS011;3625;51.762;14.320;2023-03-01T00:32:31;20.03;;;13.83;;
7166;SDS011;3625;51.762;14.320;2023-03-01T00:35:00;17.20;;;13.47;;
7166;SDS011;3625;51.762;14.320;2023-03-01T00:37:29;22.53;;;16.73;;
7166;SDS011;3625;51.762;14.320;2023-03-01T00:39:57;17.33;;;13.07;;
7166;SDS011;3625;51.762;14.320;2023-03-01T00:42:27;20.33;;;15.63;;
7166;SDS011;3625;51.762;14.320;2023-03-01T00:44:56;21.57;;;17.33;;
7166;SDS011;3625;51.762;14.320;2023-03-01T00:47:25;20.63;;;16.47;;
7166;SDS011;3625;51.762;14.320;2023-03-01T00:49:56;19.20;;;13.07;;
7166;SDS011;3625;51.762;14.320;2023-03-01T00:52:26;18.13;;;13.40;;
7166;SDS011;3625;51.762;14.320;2023-03-01T00:54:55;16.40;;;13.37;;
7166;SDS011;3625;51.762;14.320;2023-03-01T00:57:24;15.07;;;13.17;;
7166;SDS011;3625;51.762;14.320;2023-03-01T00:59:54;20.63;;;14.57;;
7166;SDS011;3625;51.762;14.320;2023-03-01T01:02:24;22.33;;;16.17;;
7166;SDS011;3625;51.762;14.320;2023-03-01T01:04:53;21.30;;;15.20;;
7166;SDS011;3625;51.762;14.320;2023-03-01T01:07:22;21.57;;;15.83;;
7166;SDS011;3625;51.762;14.320;2023-03-01T01:09:51;19.93;;;14.63;;
7166;SDS011;3625;51.762;14.320;2023-03-01T01:12:19;24.40;;;14.60;;
7166;SDS011;3625;51.762;14.320;2023-03-01T01:14:48;21.03;;;15.93;;
7166;SDS011;3625;51.762;14.320;2023-03-01T01:17:18;21.97;;;15.80;;
7166;SDS011;3625;51.762;14.320;2023-03-01T01:19:47;18.03;;;13.77;;
7166;SDS011;3625;51.762;14.320;2023-03-01T01:22:15;22.63;;;15.73;;
7166;SDS011;3625;51.762;14.320;2023-03-01T01:24:44;22.13;;;16.63;;
7166;SDS011;3625;51.762;14.320;2023-03-01T01:27:13;18.93;;;13.63;;
7166;SDS011;3625;51.762;14.320;2023-03-01T01:29:41;23.83;;;15.23;;
7166;SDS011;3625;51.762;14.320;2023-03-01T01:32:10;19.40;;;13.73;;
7166;SDS011;3625;51.762;14.320;2023-03-01T01:34:42;17.60;;;13.57;;
7166;SDS011;3625;51.762;14.320;2023-03-01T01:37:13;20.27;;;14.80;;
7166;SDS011;3625;51.762;14.320;2023-03-01T01:39:41;21.70;;;16.00;;
7166;SDS011;3625;51.762;14.320;2023-03-01T01:42:11;22.03;;;15.80;;
7166;SDS011;3625;51.762;14.320;2023-03-01T01:44:44;20.90;;;13.43;;
7166;SDS011;3625;51.762;14.320;2023-03-01T01:47:15;23.60;;;15.60;;
7166;SDS011;3625;51.762;14.320;2023-03-01T01:49:50;20.73;;;15.40;;
7166;SDS011;3625;51.762;14.320;2023-03-01T01:52:23;21.30;;;15.00;;
7166;SDS011;3625;51.762;14.320;2023-03-01T01:54:59;21.47;;;15.30;;
7166;SDS011;3625;51.762;14.320;2023-03-01T01:57:34;19.27;;;14.73;;
7166;SDS011;3625;51.762;14.320;2023-03-01T02:00:09;19.20;;;13.47;;
7166;SDS011;3625;51.762;14.320;2023-03-01T02:02:43;18.23;;;13.70;;
7166;SDS011;3625;51.762;14.320;2023-03-01T02:05:20;17.57;;;13.67;;
7166;SDS011;3625;51.762;14.320;2023-03-01T02:08:00;22.23;;;14.63;;
7166;SDS011;3625;51.762;14.320;2023-03-01T02:10:29;19.07;;;15.30;;
7166;SDS011;3625;51.762;14.320;2023-03-01T02:13:02;18.63;;;13.47;;
7166;SDS011;3625;51.762;14.320;2023-03-01T02:15:31;18.87;;;16.33;;
7166;SDS011;3625;51.762;14.320;2023-03-01T02:18:02;20.33;;;14.63;;
7166;SDS011;3625;51.762;14.320;2023-03-01T02:20:43;19.70;;;14.13;;
7166;SDS011;3625;51.762;14.320;2023-03-01T02:23:30;14.97;;;12.80;;
7166;SDS011;3625;51.762;14.320;2023-03-01T02:26:03;19.57;;;15.10;;
7166;SDS011;3625;51.762;14.320;2023-03-01T02:28:39;22.13;;;17.07;;
7166;SDS011;3625;51.762;14.320;2023-03-01T02:31:11;22.93;;;16.10;;
7166;SDS011;3625;51.762;14.320;2023-03-01T02:34:04;22.17;;;16.27;;
7166;SDS011;3625;51.762;14.320;2023-03-01T02:36:35;23.07;;;16.53;;
7166;SDS011;3625;51.762;14.320;2023-03-01T02:39:08;20.40;;;16.20;;
7166;SDS011;3625;51.762;14.320;2023-03-01T02:41:45;19.17;;;14.30;;
7166;SDS011;3625;51.762;14.320;2023-03-01T02:44:20;20.67;;;16.00;;
7166;SDS011;3625;51.762;14.320;2023-03-01T02:46:51;19.90;;;15.43;;
7166;SDS011;3625;51.762;14.320;2023-03-01T02:49:23;19.43;;;14.57;;
7166;SDS011;3625;51.762;14.320;2023-03-01T02:52:05;23.20;;;16.97;;
7166;SDS011;3625;51.762;14.320;2023-03-01T02:54:52;21.70;;;15.97;;
7166;SDS011;3625;51.762;14.320;2023-03-01T02:57:27;16.17;;;12.90;;
7166;SDS011;3625;51.762;14.320;2023-03-01T03:02:46;24.90;;;17.77;;
7166;SDS011;3625;51.762;14.320;2023-03-01T03:05:20;24.30;;;18.03;;
7166;SDS011;3625;51.762;14.320;2023-03-01T03:07:55;25.03;;;17.30;;
7166;SDS011;3625;51.762;14.320;2023-03-01T03:10:26;20.70;;;15.10;;
7166;SDS011;3625;51.762;14.320;2023-03-01T03:12:59;22.50;;;16.57;;
7166;SDS011;3625;51.762;14.320;2023-03-01T03:15:35;22.80;;;17.37;;
7166;SDS011;3625;51.762;14.320;2023-03-01T03:18:05;25.20;;;18.53;;
7166;SDS011;3625;51.762;14.320;2023-03-01T03:20:36;24.47;;;16.70;;
7166;SDS011;3625;51.762;14.320;2023-03-01T03:23:07;23.30;;;18.07;;
7166;SDS011;3625;51.762;14.320;2023-03-01T03:25:39;22.43;;;15.43;;
7166;SDS011;3625;51.762;14.320;2023-03-01T03:28:07;23.37;;;17.17;;
7166;SDS011;3625;51.762;14.320;2023-03-01T03:30:38;26.53;;;17.83;;
7166;SDS011;3625;51.762;14.320;2023-03-01T03:33:09;19.77;;;15.80;;
7166;SDS011;3625;51.762;14.320;2023-03-01T03:35:41;21.87;;;15.37;;
7166;SDS011;3625;51.762;14.320;2023-03-01T03:38:17;24.57;;;18.40;;
7166;SDS011;3625;51.762;14.320;2023-03-01T03:40:49;24.37;;;17.60;;
7166;SDS011;3625;51.762;14.320;2023-03-01T03:43:30;23.03;;;17.17;;
7166;SDS011;3625;51.762;14.320;2023-03-01T03:46:03;21.87;;;17.50;;
7166;SDS011;3625;51.762;14.320;2023-03-01T03:48:33;23.23;;;17.20;;
7166;SDS011;3625;51.762;14.320;2023-03-01T03:51:03;22.53;;;15.57;;
7166;SDS011;3625;51.762;14.320;2023-03-01T03:53:32;17.90;;;14.13;;
7166;SDS011;3625;51.762;14.320;2023-03-01T03:56:01;21.53;;;15.43;;
7166;SDS011;3625;51.762;14.320;2023-03-01T03:58:32;24.80;;;16.53;;
7166;SDS011;3625;51.762;14.320;2023-03-01T04:01:02;24.10;;;16.50;;
7166;SDS011;3625;51.762;14.320;2023-03-01T04:03:32;23.77;;;16.77;;
7166;SDS011;3625;51.762;14.320;2023-03-01T04:06:01;27.67;;;19.10;;
7166;SDS011;3625;51.762;14.320;2023-03-01T04:08:32;23.70;;;16.17;;
7166;SDS011;3625;51.762;14.320;2023-03-01T04:11:01;17.63;;;14.37;;
7166;SDS011;3625;51.762;14.320;2023-03-01T04:13:46;21.20;;;15.10;;
7166;SDS011;3625;51.762;14.320;2023-03-01T04:16:16;21.37;;;14.97;;
7166;SDS011;3625;51.762;14.320;2023-03-01T04:18:45;19.67;;;14.97;;
7166;SDS011;3625;51.762;14.320;2023-03-01T04:21:14;18.63;;;14.03;;
7166;SDS011;3625;51.762;14.320;2023-03-01T04:23:45;25.23;;;17.13;;
7166;SDS011;3625;51.762;14.320;2023-03-01T04:26:14;21.07;;;14.20;;
7166;SDS011;3625;51.762;14.320;2023-03-01T04:28:42;20.03;;;14.37;;
7166;SDS011;3625;51.762;14.320;2023-03-01T04:31:13;17.33;;;13.73;;
7166;SDS011;3625;51.762;14.320;2023-03-01T04:33:48;20.30;;;13.63;;
7166;SDS011;3625;51.762;14.320;2023-03-01T04:36:19;18.13;;;13.90;;
7166;SDS011;3625;51.762;14.320;2023-03-01T04:38:51;21.03;;;16.37;;
7166;SDS011;3625;51.762;14.320;2023-03-01T04:41:21;22.27;;;17.13;;
7166;SDS011;3625;51.762;14.320;2023-03-01T04:43:52;20.33;;;15.57;;
7166;SDS011;3625;51.762;14.320;2023-03-01T04:46:22;22.13;;;17.27;;
7166;SDS011;3625;51.762;14.320;2023-03-01T04:48:52;23.10;;;16.00;;
7166;SDS011;3625;51.762;14.320;2023-03-01T04:51:20;21.17;;;15.90;;
7166;SDS011;3625;51.762;14.320;2023-03-01T04:53:49;26.67;;;16.67;;
7166;SDS011;3625;51.762;14.320;2023-03-01T04:56:18;25.63;;;17.30;;
7166;SDS011;3625;51.762;14.320;2023-03-01T04:58:49;21.73;;;16.37;;
7166;SDS011;3625;51.762;14.320;2023-03-01T05:01:21;21.47;;;16.70;;
7166;SDS011;3625;51.762;14.320;2023-03-01T05:03:51;19.10;;;15.67;;
7166;SDS011;3625;51.762;14.320;2023-03-01T05:06:21;22.60;;;16.77;;
7166;SDS011;3625;51.762;14.320;2023-03-01T05:08:49;14.67;;;12.57;;
7166;SDS011;3625;51.762;14.320;2023-03-01T05:11:18;20.73;;;13.83;;
7166;SDS011;3625;51.762;14.320;2023-03-01T05:13:47;20.37;;;15.53;;
7166;SDS011;3625;51.762;14.320;2023-03-01T05:16:22;19.63;;;14.90;;
7166;SDS011;3625;51.762;14.320;2023-03-01T05:18:51;23.10;;;17.53;;
7166;SDS011;3625;51.762;14.320;2023-03-01T05:21:21;21.17;;;17.60;;
7166;SDS011;3625;51.762;14.320;2023-03-01T05:23:50;19.80;;;14.40;;
7166;SDS011;3625;51.762;14.320;2023-03-01T05:26:19;20.23;;;15.30;;
7166;SDS011;3625;51.762;14.320;2023-03-01T05:28:54;25.30;;;18.30;;
7166;SDS011;3625;51.762;14.320;2023-03-01T05:31:27;18.97;;;14.97;;
7166;SDS011;3625;51.762;14.320;2023-03-01T05:33:57;22.17;;;15.60;;
7166;SDS011;3625;51.762;14.320;2023-03-01T05:36:26;20.27;;;15.93;;
7166;SDS011;3625;51.762;14.320;2023-03-01T05:38:55;20.33;;;14.47;;
7166;SDS011;3625;51.762;14.320;2023-03-01T05:41:24;27.10;;;17.60;;
7166;SDS011;3625;51.762;14.320;2023-03-01T05:43:53;22.03;;;16.30;;
7166;SDS011;3625;51.762;14.320;2023-03-01T05:46:23;20.60;;;16.53;;
7166;SDS011;3625;51.762;14.320;2023-03-01T05:48:53;19.60;;;15.73;;
7166;SDS011;3625;51.762;14.320;2023-03-01T05:51:23;24.67;;;17.43;;
7166;SDS011;3625;51.762;14.320;2023-03-01T05:53:52;25.73;;;19.20;;
7166;SDS011;3625;51.762;14.320;2023-03-01T05:56:21;26.13;;;18.90;;
7166;SDS011;3625;51.762;14.320;2023-03-01T05:58:52;23.40;;;16.93;;
7166;SDS011;3625;51.762;14.320;2023-03-01T06:01:21;24.90;;;17.93;;
7166;SDS011;3625;51.762;14.320;2023-03-01T06:03:53;19.37;;;14.90;;
7166;SDS011;3625;51.762;14.320;2023-03-01T06:06:37;19.43;;;15.97;;
7166;SDS011;3625;51.762;14.320;2023-03-01T06:09:17;30.63;;;20.67;;
7166;SDS011;3625;51.762;14.320;2023-03-01T06:11:45;25.33;;;18.03;;
7166;SDS011;3625;51.762;14.320;2023-03-01T06:14:14;22.47;;;16.37;;
7166;SDS011;3625;51.762;14.320;2023-03-01T06:16:44;28.53;;;19.17;;
7166;SDS011;3625;51.762;14.320;2023-03-01T06:19:14;29.20;;;18.30;;
7166;SDS011;3625;51.762;14.320;2023-03-01T06:21:54;21.40;;;15.60;;
7166;SDS011;3625;51.762;14.320;2023-03-01T06:24:23;23.73;;;17.47;;
7166;SDS011;3625;51.762;14.320;2023-03-01T06:26:52;20.60;;;15.50;;
7166;SDS011;3625;51.762;14.320;2023-03-01T06:29:23;20.63;;;14.40;;
7166;SDS011;3625;51.762;14.320;2023-03-01T06:31:52;27.80;;;18.50;;
7166;SDS011;3625;51.762;14.320;2023-03-01T06:34:24;26.13;;;17.93;;
7166;SDS011;3625;51.762;14.320;2023-03-01T06:36:55;28.87;;;18.47;;
7166;SDS011;3625;51.762;14.320;2023-03-01T06:39:24;25.20;;;17.60;;
7166;SDS011;3625;51.762;14.320;2023-03-01T06:41:54;27.93;;;18.77;;
7166;SDS011;3625;51.762;14.320;2023-03-01T06:44:23;30.47;;;19.37;;
7166;SDS011;3625;51.762;14.320;2023-03-01T06:46:52;30.30;;;18.37;;
7166;SDS011;3625;51.762;14.320;2023-03-01T06:49:21;24.70;;;16.30;;
7166;SDS011;3625;51.762;14.320;2023-03-01T06:51:57;19.23;;;13.83;;
7166;SDS011;3625;51.762;14.320;2023-03-01T06:54:27;25.63;;;17.37;;
7166;SDS011;3625;51.762;14.320;2023-03-01T06:56:56;26.67;;;17.17;;
7166;SDS011;3625;51.762;14.320;2023-03-01T06:59:25;20.97;;;16.27;;
7166;SDS011;3625;51.762;14.320;2023-03-01T07:01:53;25.30;;;16.90;;
7166;SDS011;3625;51.762;14.320;2023-03-01T07:04:24;25.30;;;17.97;;
7166;SDS011;3625;51.762;14.320;2023-03-01T07:07:00;24.90;;;18.30;;
7166;SDS011;3625;51.762;14.320;2023-03-01T07:09:29;24.77;;;16.63;;
7166;SDS011;3625;51.762;14.320;2023-03-01T07:12:01;23.77;;;15.90;;
7166;SDS011;3625;51.762;14.320;2023-03-01T07:14:30;23.93;;;16.57;;
7166;SDS011;3625;51.762;14.320;2023-03-01T07:17:04;22.80;;;16.80;;
7166;SDS011;3625;51.762;14.320;2023-03-01T07:19:37;23.33;;;16.87;;
7166;SDS011;3625;51.762;14.320;2023-03-01T07:22:06;27.10;;;18.17;;
7166;SDS011;3625;51.762;14.320;2023-03-01T07:24:36;24.13;;;17.60;;
7166;SDS011;3625;51.762;14.320;2023-03-01T07:27:05;26.07;;;17.53;;
7166;SDS011;3625;51.762;14.320;2023-03-01T07:29:38;29.00;;;18.83;;
7166;SDS011;3625;51.762;14.320;2023-03-01T07:32:07;26.00;;;18.00;;
7166;SDS011;3625;51.762;14.320;2023-03-01T07:34:41;25.77;;;18.23;;
7166;SDS011;3625;51.762;14.320;2023-03-01T07:37:10;25.97;;;17.73;;
7166;SDS011;3625;51.762;14.320;2023-03-01T07:39:41;27.43;;;16.97;;
7166;SDS011;3625;51.762;14.320;2023-03-01T07:42:11;22.37;;;15.70;;
7166;SDS011;3625;51.762;14.320;2023-03-01T07:44:48;23.00;;;16.17;;
7166;SDS011;3625;51.762;14.320;2023-03-01T07:47:18;31.83;;;19.50;;
7166;SDS011;3625;51.762;14.320;2023-03-01T07:50:03;32.27;;;21.00;;
7166;SDS011;3625;51.762;14.320;2023-03-01T07:52:33;33.67;;;22.20;;
7166;SDS011;3625;51.762;14.320;2023-03-01T07:55:04;31.37;;;23.17;;
7166;SDS011;3625;51.762;14.320;2023-03-01T07:57:33;32.43;;;22.70;;
7166;SDS011;3625;51.762;14.320;2023-03-01T08:00:05;31.80;;;22.50;;
7166;SDS011;3625;51.762;14.320;2023-03-01T08:02:39;31.40;;;22.27;;
7166;SDS011;3625;51.762;14.320;2023-03-01T08:05:11;35.27;;;22.77;;
7166;SDS011;3625;51.762;14.320;2023-03-01T08:07:43;29.50;;;22.37;;
7166;SDS011;3625;51.762;14.320;2023-03-01T08:10:11;30.47;;;21.53;;
7166;SDS011;3625;51.762;14.320;2023-03-01T08:12:42;25.23;;;19.93;;
7166;SDS011;3625;51.762;14.320;2023-03-01T08:15:12;32.57;;;22.90;;
7166;SDS011;3625;51.762;14.320;2023-03-01T08:17:42;32.63;;;22.23;;
7166;SDS011;3625;51.762;14.320;2023-03-01T08:20:17;33.00;;;23.47;;
7166;SDS011;3625;51.762;14.320;2023-03-01T08:22:46;31.70;;;22.37;;
7166;SDS011;3625;51.762;14.320;2023-03-01T08:25:18;36.83;;;25.00;;
7166;SDS011;3625;51.762;14.320;2023-03-01T08:27:49;32.23;;;23.97;;
7166;SDS011;3625;51.762;14.320;2023-03-01T08:30:18;34.63;;;22.30;;
7166;SDS011;3625;51.762;14.320;2023-03-01T08:32:50;31.70;;;21.33;;
7166;SDS011;3625;51.762;14.320;2023-03-01T08:35:21;32.03;;;24.53;;
7166;SDS011;3625;51.762;14.320;2023-03-01T08:37:50;34.87;;;24.53;;
7166;SDS011;3625;51.762;14.320;2023-03-01T08:40:19;32.43;;;22.90;;
7166;SDS011;3625;51.762;14.320;2023-03-01T08:42:47;31.17;;;23.83;;
7166;SDS011;3625;51.762;14.320;2023-03-01T08:45:16;33.63;;;24.27;;
7166;SDS011;3625;51.762;14.320;2023-03-01T08:47:45;31.40;;;21.50;;
7166;SDS011;3625;51.762;14.320;2023-03-01T08:50:14;31.53;;;22.07;;
7166;SDS011;3625;51.762;14.320;2023-03-01T08:52:44;32.77;;;22.67;;
7166;SDS011;3625;51.762;14.320;2023-03-01T08:55:13;33.97;;;22.20;;
7166;SDS011;3625;51.762;14.320;2023-03-01T08:57:43;31.77;;;21.40;;
7166;SDS011;3625;51.762;14.320;2023-03-01T09:00:12;29.30;;;20.37;;
7166;SDS011;3625;51.762;14.320;2023-03-01T09:02:43;24.07;;;17.80;;
7166;SDS011;3625;51.762;14.320;2023-03-01T09:05:12;27.33;;;19.50;;
7166;SDS011;3625;51.762;14.320;2023-03-01T09:07:41;29.43;;;18.97;;
7166;SDS011;3625;51.762;14.320;2023-03-01T09:10:11;26.97;;;20.00;;
7166;SDS011;3625;51.762;14.320;2023-03-01T09:12:40;26.70;;;19.73;;
7166;SDS011;3625;51.762;14.320;2023-03-01T09:15:09;28.53;;;19.83;;
7166;SDS011;3625;51.762;14.320;2023-03-01T09:17:38;28.27;;;19.50;;
7166;SDS011;3625;51.762;14.320;2023-03-01T09:20:07;25.63;;;17.23;;
7166;SDS011;3625;51.762;14.320;2023-03-01T09:22:37;27.80;;;19.00;;
7166;SDS011;3625;51.762;14.320;2023-03-01T09:25:06;25.03;;;17.63;;
7166;SDS011;3625;51.762;14.320;2023-03-01T09:27:37;23.73;;;17.37;;
7166;SDS011;3625;51.762;14.320;2023-03-01T09:30:06;27.33;;;18.87;;
7166;SDS011;3625;51.762;14.320;2023-03-01T09:32:36;25.87;;;17.17;;
7166;SDS011;3625;51.762;14.320;2023-03-01T09:35:08;26.20;;;16.67;;
7166;SDS011;3625;51.762;14.320;2023-03-01T09:37:38;30.03;;;18.30;;
7166;SDS011;3625;51.762;14.320;2023-03-01T09:40:11;24.03;;;16.40;;
7166;SDS011;3625;51.762;14.320;2023-03-01T09:42:52;25.37;;;16.93;;
7166;SDS011;3625;51.762;14.320;2023-03-01T09:45:29;26.40;;;17.77;;
7166;SDS011;3625;51.762;14.320;2023-03-01T09:48:07;25.10;;;17.00;;
7166;SDS011;3625;51.762;14.320;2023-03-01T09:50:48;24.70;;;18.07;;
7166;SDS011;3625;51.762;14.320;2023-03-01T09:53:20;23.17;;;16.67;;
7166;SDS011;3625;51.762;14.320;2023-03-01T09:55:58;19.53;;;13.50;;
7166;SDS011;3625;51.762;14.320;2023-03-01T09:58:36;19.60;;;13.80;;
7166;SDS011;3625;51.762;14.320;2023-03-01T10:01:20;21.90;;;15.23;;
7166;SDS011;3625;51.762;14.320;2023-03-01T10:04:02;23.57;;;15.20;;
7166;SDS011;3625;51.762;14.320;2023-03-01T10:06:54;20.80;;;13.60;;
7166;SDS011;3625;51.762;14.320;2023-03-01T10:09:42;22.17;;;15.50;;
7166;SDS011;3625;51.762;14.320;2023-03-01T10:12:15;21.23;;;15.13;;
7166;SDS011;3625;51.762;14.320;2023-03-01T10:14:55;20.20;;;15.53;;
7166;SDS011;3625;51.762;14.320;2023-03-01T10:17:35;19.43;;;13.03;;
7166;SDS011;3625;51.762;14.320;2023-03-01T10:20:14;21.73;;;13.87;;
7166;SDS011;3625;51.762;14.320;2023-03-01T10:22:47;19.97;;;13.70;;
7166;SDS011;3625;51.762;14.320;2023-03-01T10:25:22;19.30;;;13.07;;
7166;SDS011;3625;51.762;14.320;2023-03-01T10:28:10;20.50;;;14.50;;
7166;SDS011;3625;51.762;14.320;2023-03-01T10:30:47;23.67;;;14.87;;
7166;SDS011;3625;51.762;14.320;2023-03-01T10:33:16;18.67;;;15.00;;
7166;SDS011;3625;51.762;14.320;2023-03-01T10:35:50;16.70;;;12.47;;
7166;SDS011;3625;51.762;14.320;2023-03-01T10:38:19;18.80;;;14.27;;
7166;SDS011;3625;51.762;14.320;2023-03-01T10:40:52;16.00;;;12.53;;
7166;SDS011;3625;51.762;14.320;2023-03-01T10:43:24;16.97;;;12.43;;
7166;SDS011;3625;51.762;14.320;2023-03-01T10:46:01;16.87;;;12.30;;
7166;SDS011;3625;51.762;14.320;2023-03-01T10:48:29;17.63;;;11.90;;
7166;SDS011;3625;51.762;14.320;2023-03-01T10:51:07;17.83;;;12.00;;
7166;SDS011;3625;51.762;14.320;2023-03-01T10:53:48;14.20;;;10.90;;
7166;SDS011;3625;51.762;14.320;2023-03-01T10:56:18;15.37;;;12.27;;
7166;SDS011;3625;51.762;14.320;2023-03-01T10:58:56;14.73;;;11.57;;
7166;SDS011;3625;51.762;14.320;2023-03-01T11:01:30;15.93;;;11.40;;
7166;SDS011;3625;51.762;14.320;2023-03-01T11:04:10;14.07;;;11.77;;
7166;SDS011;3625;51.762;14.320;2023-03-01T11:06:41;17.00;;;11.63;;
7166;SDS011;3625;51.762;14.320;2023-03-01T11:09:14;14.07;;;10.10;;
7166;SDS011;3625;51.762;14.320;2023-03-01T11:11:45;17.80;;;11.80;;
7166;SDS011;3625;51.762;14.320;2023-03-01T11:14:20;11.60;;;10.30;;
7166;SDS011;3625;51.762;14.320;2023-03-01T11:17:01;13.90;;;10.90;;
7166;SDS011;3625;51.762;14.320;2023-03-01T11:19:33;13.73;;;10.63;;
7166;SDS011;3625;51.762;14.320;2023-03-01T11:22:02;15.70;;;10.60;;
7166;SDS011;3625;51.762;14.320;2023-03-01T11:24:40;12.83;;;9.07;;
7166;SDS011;3625;51.762;14.320;2023-03-01T11:27:17;11.47;;;8.80;;
7166;SDS011;3625;51.762;14.320;2023-03-01T11:29:52;11.67;;;9.70;;
7166;SDS011;3625;51.762;14.320;2023-03-01T11:32:29;14.10;;;10.17;;
7166;SDS011;3625;51.762;14.320;2023-03-01T11:35:10;12.77;;;9.47;;
7166;SDS011;3625;51.762;14.320;2023-03-01T11:37:51;11.93;;;9.43;;
7166;SDS011;3625;51.762;14.320;2023-03-01T11:40:33;12.77;;;10.30;;
7166;SDS011;3625;51.762;14.320;2023-03-01T11:43:09;15.93;;;10.30;;
7166;SDS011;3625;51.762;14.320;2023-03-01T11:52:33;13.03;;;10.13;;
7166;SDS011;3625;51.762;14.320;2023-03-01T11:55:18;9.27;;;7.30;;
7166;SDS011;3625;51.762;14.320;2023-03-01T11:58:10;12.07;;;9.33;;
7166;SDS011;3625;51.762;14.320;2023-03-01T12:01:03;13.60;;;8.70;;
7166;SDS011;3625;51.762;14.320;2023-03-01T12:03:56;11.27;;;9.40;;
7166;SDS011;3625;51.762;14.320;2023-03-01T12:07:04;14.43;;;10.30;;
7166;SDS011;3625;51.762;14.320;2023-03-01T12:09:47;13.57;;;9.90;;
7166;SDS011;3625;51.762;14.320;2023-03-01T12:12:47;18.27;;;10.37;;
7166;SDS011;3625;51.762;14.320;2023-03-01T12:15:48;15.60;;;10.63;;
7166;SDS011;3625;51.762;14.320;2023-03-01T12:19:07;12.30;;;10.13;;
7166;SDS011;3625;51.762;14.320;2023-03-01T12:22:13;14.37;;;10.33;;
7166;SDS011;3625;51.762;14.320;2023-03-01T12:25:05;11.50;;;8.87;;
7166;SDS011;3625;51.762;14.320;2023-03-01T12:27:51;11.17;;;8.20;;
7166;SDS011;3625;51.762;14.320;2023-03-01T12:30:41;11.43;;;8.53;;
7166;SDS011;3625;51.762;14.320;2023-03-01T12:33:26;11.73;;;8.27;;
7166;SDS011;3625;51.762;14.320;2023-03-01T12:36:20;10.73;;;8.53;;
7166;SDS011;3625;51.762;14.320;2023-03-01T12:39:13;13.63;;;10.37;;
7166;SDS011;3625;51.762;14.320;2023-03-01T12:42:12;10.13;;;8.10;;
7166;SDS011;3625;51.762;14.320;2023-03-01T12:45:02;10.30;;;8.00;;
7166;SDS011;3625;51.762;14.320;2023-03-01T12:48:00;11.13;;;9.60;;
7166;SDS011;3625;51.762;14.320;2023-03-01T12:50:45;13.33;;;10.00;;
7166;SDS011;3625;51.762;14.320;2023-03-01T12:53:22;13.10;;;9.10;;
7166;SDS011;3625;51.762;14.320;2023-03-01T12:55:56;14.70;;;9.47;;
7166;SDS011;3625;51.762;14.320;2023-03-01T12:58:30;12.27;;;9.00;;
7166;SDS011;3625;51.762;14.320;2023-03-01T13:01:21;8.97;;;7.83;;
7166;SDS011;3625;51.762;14.320;2023-03-01T13:04:10;10.63;;;8.43;;
7166;SDS011;3625;51.762;14.320;2023-03-01T13:06:50;12.83;;;8.57;;
7166;SDS011;3625;51.762;14.320;2023-03-01T13:09:33;10.90;;;7.47;;
7166;SDS011;3625;51.762;14.320;2023-03-01T13:15:26;12.97;;;8.27;;
7166;SDS011;3625;51.762;14.320;2023-03-01T13:18:03;11.27;;;8.67;;
7166;SDS011;3625;51.762;14.320;2023-03-01T13:20:57;12.83;;;9.10;;
7166;SDS011;3625;51.762;14.320;2023-03-01T13:23:30;12.67;;;9.20;;
7166;SDS011;3625;51.762;14.320;2023-03-01T13:26:05;10.77;;;8.43;;
7166;SDS011;3625;51.762;14.320;2023-03-01T13:28:50;11.03;;;8.10;;
7166;SDS011;3625;51.762;14.320;2023-03-01T13:34:44;15.40;;;10.43;;
7166;SDS011;3625;51.762;14.320;2023-03-01T13:37:23;15.17;;;10.37;;
7166;SDS011;3625;51.762;14.320;2023-03-01T13:39:58;18.93;;;11.80;;
7166;SDS011;3625;51.762;14.320;2023-03-01T13:42:33;16.90;;;9.63;;
7166;SDS011;3625;51.762;14.320;2023-03-01T13:45:15;14.87;;;10.57;;
7166;SDS011;3625;51.762;14.320;2023-03-01T13:47:50;13.50;;;9.70;;
7166;SDS011;3625;51.762;14.320;2023-03-01T13:50:25;13.93;;;10.43;;
7166;SDS011;3625;51.762;14.320;2023-03-01T13:52:59;16.10;;;10.47;;
7166;SDS011;3625;51.762;14.320;2023-03-01T13:55:35;14.23;;;10.77;;
7166;SDS011;3625;51.762;14.320;2023-03-01T13:58:15;13.83;;;10.47;;
7166;SDS011;3625;51.762;14.320;2023-03-01T14:00:56;14.43;;;10.07;;
7166;SDS011;3625;51.762;14.320;2023-03-01T14:03:28;12.10;;;9.23;;
7166;SDS011;3625;51.762;14.320;2023-03-01T14:06:01;11.97;;;9.27;;
7166;SDS011;3625;51.762;14.320;2023-03-01T14:08:42;12.30;;;9.73;;
7166;SDS011;3625;51.762;14.320;2023-03-01T14:14:33;12.37;;;9.40;;
7166;SDS011;3625;51.762;14.320;2023-03-01T14:17:20;14.13;;;10.03;;
7166;SDS011;3625;51.762;14.320;2023-03-01T14:20:29;10.57;;;7.77;;
7166;SDS011;3625;51.762;14.320;2023-03-01T14:23:09;10.93;;;8.90;;
7166;SDS011;3625;51.762;14.320;2023-03-01T14:25:45;12.87;;;8.30;;
7166;SDS011;3625;51.762;14.320;2023-03-01T14:28:18;13.07;;;8.67;;
7166;SDS011;3625;51.762;14.320;2023-03-01T14:30:50;10.77;;;8.17;;
7166;SDS011;3625;51.762;14.320;2023-03-01T14:33:24;10.63;;;8.50;;
7166;SDS011;3625;51.762;14.320;2023-03-01T14:35:56;14.33;;;8.03;;
7166;SDS011;3625;51.762;14.320;2023-03-01T14:38:30;9.80;;;6.87;;
7166;SDS011;3625;51.762;14.320;2023-03-01T14:41:03;10.13;;;6.83;;
7166;SDS011;3625;51.762;14.320;2023-03-01T14:43:37;9.87;;;7.17;;
7166;SDS011;3625;51.762;14.320;2023-03-01T14:46:16;9.00;;;7.20;;
7166;SDS011;3625;51.762;14.320;2023-03-01T14:48:50;9.07;;;7.20;;
7166;SDS011;3625;51.762;14.320;2023-03-01T14:51:21;10.07;;;6.93;;
7166;SDS011;3625;51.762;14.320;2023-03-01T14:53:50;8.97;;;7.30;;
7166;SDS011;3625;51.762;14.320;2023-03-01T14:56:19;9.83;;;6.30;;
7166;SDS011;3625;51.762;14.320;2023-03-01T14:58:50;8.53;;;7.17;;
7166;SDS011;3625;51.762;14.320;2023-03-01T15:01:20;7.73;;;6.50;;
7166;SDS011;3625;51.762;14.320;2023-03-01T15:03:51;9.80;;;7.20;;
7166;SDS011;3625;51.762;14.320;2023-03-01T15:06:20;8.60;;;6.20;;
7166;SDS011;3625;51.762;14.320;2023-03-01T15:08:51;10.20;;;6.83;;
7166;SDS011;3625;51.762;14.320;2023-03-01T15:11:25;8.53;;;6.90;;
7166;SDS011;3625;51.762;14.320;2023-03-01T15:13:57;8.00;;;6.50;;
7166;SDS011;3625;51.762;14.320;2023-03-01T15:16:27;9.20;;;5.97;;
7166;SDS011;3625;51.762;14.320;2023-03-01T15:19:02;8.83;;;7.00;;
7166;SDS011;3625;51.762;14.320;2023-03-01T15:21:34;8.20;;;5.90;;
7166;SDS011;3625;51.762;14.320;2023-03-01T15:24:05;7.00;;;5.60;;
7166;SDS011;3625;51.762;14.320;2023-03-01T15:26:50;11.93;;;6.77;;
7166;SDS011;3625;51.762;14.320;2023-03-01T15:29:25;9.20;;;5.67;;
7166;SDS011;3625;51.762;14.320;2023-03-01T15:32:00;6.33;;;4.93;;
7166;SDS011;3625;51.762;14.320;2023-03-01T15:34:33;8.00;;;5.60;;
7166;SDS011;3625;51.762;14.320;2023-03-01T15:37:05;10.13;;;7.27;;